MET'MAP v2.0
soon released !

Expected late october,
this new version will be
more efficient, smarter,
and hosted on a brand new
server x3 powerfull...
...and still free !


Not compatible ?
Try the mobile version !

LOG IN : | Subscribe | Disclaimer | Who is Orbifly ? |
ICAO code :

TAF - LGKL Kalamata AB - 28 Oct 2020 03:18 UTC - Data Source NOAA   


- Airport Elevation : 26 ft
- IATA code : KLX
- No reported NOTAMs.


LGKL - Kalamata AB

Latest METAR recorded : 2015/08/11 07:50 LGKL 110750Z 00000KT 9999 FEW030 29/19 Q1012
TAF TAF LGKL
Valid from the 28 at 00:00 until the 28 at 09:00 UTC


272300Z 2800/2809 14012KT 9999 BKN020 BKN080
TEMPO 2801/2809 5000 RA
TEMPO 2804/2809 3000 TSRA FEW018CB BKN020 OVC080

Source NOAA


MET'MAP, your aeronautical weather chart ! - Copyright ORBIFLY December 2007

Programming & Development : Alexandra Zaïnal
Co-Developer : Marc-Olivier Méhu
Technical & hardware support : Manuel Goepfert
Concept & Financing : Baudouin d'Aumeries